Buoy 41540

sailwx.info

Track history (hours):
 
Tides and Currents Weather Stations Pressure Air Temp Water Temp Dewpoint Dewpoint Depression Visibility Wind Speed Wind Dir Waves Ship Positions

Drifting buoy 41540

Last reported at 2018-Jun-24 00:00 UTC. Time now 2018-Jun-24 01:10 UTC.
Position N 42°49' W 037°45'.

Water temperature 16.4 ° C

Date/timePositionNaut miles runAvg speedWind from/ knotsBaromVisibWave heightAir tempDewpointWater temp
2018-Jun-24 00:00N 42°49' W 037°45'1 1.3 16.4
2018-Jun-23 23:00N 42°50' W 037°44'1 0.7 16.5
2018-Jun-23 22:00N 42°51' W 037°44'1 0.6 16.5
2018-Jun-23 21:00N 42°52' W 037°44'1 1.3 16.6
2018-Jun-23 20:00N 42°53' W 037°43'1 1.2 16.7
2018-Jun-23 19:00N 42°54' W 037°43'6 1.1 16.7
2018-Jun-23 13:00N 42°59' W 037°48'0 0.4 16.6
2018-Jun-23 12:00N 42°59' W 037°49'0 0.4 16.6
2018-Jun-23 11:00N 42°59' W 037°49'0 0.4 16.6
2018-Jun-23 10:00N 42°59' W 037°50'0 0.4 16.5
2018-Jun-23 09:00N 42°59' W 037°50'0 0.4 16.4
2018-Jun-23 08:00N 42°59' W 037°51'1 0.7 16.5
2018-Jun-23 07:00N 43°00' W 037°52'0 0.4 16.5
2018-Jun-23 06:00N 43°00' W 037°52'1 0.7 16.5
2018-Jun-23 05:00N 43°01' W 037°53'0 0.4 16.5
2018-Jun-23 04:00N 43°01' W 037°53'0 0.4 16.5
2018-Jun-23 03:00N 43°01' W 037°54'1 0.7 16.6
2018-Jun-23 02:00N 43°01' W 037°55'0 0.4 16.7
2018-Jun-23 01:00N 43°01' W 037°55'1 0.7 16.7
2018-Jun-23 00:00N 43°02' W 037°56'1 0.9 16.8
2018-Jun-22 23:00N 43°02' W 037°57'1 0.7 16.8
2018-Jun-22 22:00N 43°02' W 037°58'0 0.4 16.6
2018-Jun-22 21:00N 43°02' W 037°58'1 0.7 16.6
2018-Jun-22 20:00N 43°03' W 037°59'1 0.9 16.6
2018-Jun-22 19:00N 43°03' W 038°00'1 0.7 16.6
2018-Jun-22 18:00N 43°04' W 038°01'0 0.4 16.6
2018-Jun-22 17:00N 43°04' W 038°01'1 0.9 16.6
2018-Jun-22 16:00N 43°04' W 038°02'1 0.9 16.5
2018-Jun-22 15:00N 43°04' W 038°04'0 0.4 16.5
2018-Jun-22 14:00N 43°04' W 038°04'0 0.4 16.4
2018-Jun-22 13:00N 43°04' W 038°05'0 0.0 16.4
2018-Jun-22 12:00N 43°04' W 038°05'1 0.7 16.4
2018-Jun-22 10:00N 43°05' W 038°06'1 0.7 16.4
2018-Jun-22 08:00N 43°05' W 038°08'6 0.9 16.3
2018-Jun-22 01:00N 43°08' W 038°15'0 0.4 16.4
2018-Jun-22 00:00N 43°08' W 038°16'1 0.7 16.4
2018-Jun-21 23:00N 43°09' W 038°16'0 0.4 16.4
2018-Jun-21 22:00N 43°09' W 038°17'1 1.1 16.4
2018-Jun-21 21:00N 43°10' W 038°18'1 0.7 16.4
2018-Jun-21 20:00N 43°10' W 038°19'1 0.7 16.5
2018-Jun-21 19:00N 43°11' W 038°19'1 1.5 16.4
2018-Jun-21 18:00N 43°12' W 038°20'1 0.7 16.4
2018-Jun-21 17:00N 43°13' W 038°21'1 1.1 16.2
2018-Jun-21 16:00N 43°13' W 038°22'1 1.5 16.1
2018-Jun-21 15:00N 43°14' W 038°23'1 1.1 16.0
2018-Jun-21 14:00N 43°15' W 038°25'1 1.1 15.9
2018-Jun-21 13:00N 43°16' W 038°26'1 1.5 15.9
2018-Jun-21 12:00N 43°17' W 038°27'1 1.1 15.9
2018-Jun-21 11:00N 43°17' W 038°28'1 1.5 15.8
2018-Jun-21 10:00N 43°19' W 038°29'1 1.1 15.8
2018-Jun-21 09:00N 43°19' W 038°31'1 1.1 15.8
2018-Jun-21 08:00N 43°20' W 038°32'1 1.1 15.8
2018-Jun-21 07:00N 43°20' W 038°33'1 0.7 15.8
2018-Jun-21 06:00N 43°21' W 038°34'1 1.1 15.8
2018-Jun-21 05:00N 43°22' W 038°35'1 0.7 15.8
2018-Jun-21 04:00N 43°22' W 038°35'1 1.3 15.8
2018-Jun-21 03:00N 43°23' W 038°36'1 1.1 15.8
2018-Jun-21 02:00N 43°24' W 038°37'1 1.3 15.8
2018-Jun-21 01:00N 43°25' W 038°38'1 0.7 15.8
2018-Jun-21 00:00N 43°26' W 038°38'1 1.3 200 / 4 gusting 41015.7 0.6 15.8
2018-Jun-20 23:00N 43°27' W 038°39'1 0.7 15.9
2018-Jun-20 22:00N 43°28' W 038°40'1 1.5 15.9
2018-Jun-20 21:00N 43°29' W 038°41'1 1.1 16.0
2018-Jun-20 20:00N 43°29' W 038°42'1 1.3 16.0
2018-Jun-20 19:00N 43°31' W 038°43'1 1.1 15.9
2018-Jun-20 18:00N 43°31' W 038°44'1 1.5 15.9
2018-Jun-20 17:00N 43°32' W 038°45'1 0.7 15.9
2018-Jun-20 16:00N 43°33' W 038°46'1 1.1 15.8
2018-Jun-20 15:00N 43°34' W 038°47'1 1.3 15.6
2018-Jun-20 14:00N 43°35' W 038°47'1 0.7 15.6
2018-Jun-20 13:00N 43°35' W 038°48'1 0.7 15.4
2018-Jun-20 12:00N 43°36' W 038°49'1 1.3 15.4
2018-Jun-20 11:00N 43°37' W 038°49'1 0.7 15.3
2018-Jun-20 10:00N 43°38' W 038°50'3 1.2 15.3
2018-Jun-20 07:00N 43°41' W 038°52'1 0.7 15.3
2018-Jun-20 06:00N 43°41' W 038°53'1 1.3 15.4
2018-Jun-20 05:00N 43°43' W 038°53'1 0.7 15.4
2018-Jun-20 04:00N 43°43' W 038°54'1 1.3 15.4
2018-Jun-20 03:00N 43°44' W 038°55'2 1.0 15.5
2018-Jun-20 01:00N 43°46' W 038°56'1 1.3 15.6
2018-Jun-20 00:00N 43°47' W 038°56'1 0.7 15.7
2018-Jun-19 23:00N 43°48' W 038°57'1 0.6 15.8
2018-Jun-19 22:00N 43°49' W 038°57'1 1.3 15.9
2018-Jun-19 21:00N 43°50' W 038°58'1 0.7 16.1
2018-Jun-19 20:00N 43°50' W 038°58'1 1.2 16.4
2018-Jun-19 19:00N 43°52' W 038°58'1 1.3 16.5
2018-Jun-19 18:00N 43°53' W 038°59'1 0.6 16.7
2018-Jun-19 17:00N 43°53' W 038°59'1 1.3 16.7
2018-Jun-19 16:00N 43°55' W 038°59'1 1.2 16.5
2018-Jun-19 15:00N 43°56' W 038°59'1 1.3 16.1
2018-Jun-19 14:00N 43°57' W 039°00'1 1.2 15.7
2018-Jun-19 13:00N 43°58' W 039°00'1 1.2 15.4
2018-Jun-19 12:00N 43°59' W 039°00'1 1.2 15.3
2018-Jun-19 11:00N 44°01' W 039°00'2 1.8 15.2
2018-Jun-19 10:00N 44°02' W 039°00'1 1.3 15.1
2018-Jun-19 09:00N 44°04' W 038°59'2 1.8 15.1
2018-Jun-19 08:00N 44°05' W 038°59'1 1.3 15.1
2018-Jun-19 07:00N 44°07' W 039°00'1 1.2 15.1
2018-Jun-19 06:00N 44°08' W 039°00'2 1.8 15.2
2018-Jun-19 05:00N 44°10' W 039°00'1 1.3 15.1
2018-Jun-19 04:00N 44°11' W 038°59'1 1.2 15.1
2018-Jun-19 03:00N 44°12' W 038°59'2 1.9 15.1
2018-Jun-19 02:00N 44°14' W 038°59'2 1.9 15.1
2018-Jun-19 01:00N 44°16' W 038°58'1 1.5 15.1
2018-Jun-19 00:00N 44°17' W 038°57'2 2.0 15.1
2018-Jun-18 23:00N 44°19' W 038°56'2 1.9 14.9
2018-Jun-18 22:00N 44°20' W 038°55'2 2.4 14.9
2018-Jun-18 21:00N 44°23' W 038°55'2 2.0 14.9
2018-Jun-18 20:00N 44°25' W 038°53'2 1.9 15.0
2018-Jun-18 19:00N 44°26' W 038°53'3 2.5 15.0
2018-Jun-18 18:00N 44°29' W 038°52'2 1.9 15.1
2018-Jun-18 17:00N 44°31' W 038°51'2 2.4 15.1
2018-Jun-18 16:00N 44°33' W 038°51'2 2.4 15.1
2018-Jun-18 15:00N 44°35' W 038°50'2 1.8 15.0
2018-Jun-18 14:00N 44°37' W 038°50'2 2.4 14.9
2018-Jun-18 13:00N 44°40' W 038°50'2 2.4 15.0
2018-Jun-18 12:00N 44°42' W 038°50'6 2.0 14.9
2018-Jun-18 09:00N 44°48' W 038°51'2 1.8 14.9
2018-Jun-18 08:00N 44°50' W 038°52'2 1.8 14.9
2018-Jun-18 07:00N 44°52' W 038°52'1 1.3 15.0
2018-Jun-18 06:00N 44°53' W 038°52'2 1.8 15.0
2018-Jun-18 05:00N 44°55' W 038°52'2 1.8 14.9
2018-Jun-18 04:00N 44°56' W 038°52'2 1.8 220 / 12 gusting 14 0.222.012.215.0
2018-Jun-18 03:00N 44°58' W 038°52'2 1.8 15.0
2018-Jun-18 02:00N 45°00' W 038°52'2 1.8 15.1
2018-Jun-18 01:00N 45°02' W 038°53'2 1.8 15.1
2018-Jun-18 00:00N 45°04' W 038°53'2 1.8 15.1
2018-Jun-17 23:00N 45°05' W 038°53'1 1.2 15.1
2018-Jun-17 22:00N 45°07' W 038°53'2 1.8 15.1
2018-Jun-17 21:00N 45°08' W 038°54'1 1.2 15.2
2018-Jun-17 20:00N 45°10' W 038°54'2 1.8 15.2
2018-Jun-17 19:00N 45°11' W 038°55'1 1.2 15.1
2018-Jun-17 18:00N 45°13' W 038°55'1 1.2 15.1
2018-Jun-17 17:00N 45°14' W 038°55'2 1.8 15.1
2018-Jun-17 16:00N 45°16' W 038°55'1 1.2 15.1
2018-Jun-17 15:00N 45°17' W 038°55'1 0.7 15.0
2018-Jun-17 14:00N 45°17' W 038°56'1 1.3 15.0
2018-Jun-17 13:00N 45°19' W 038°56'1 0.6 15.0
2018-Jun-17 12:00N 45°19' W 038°56'1 0.7 14.9
2018-Jun-17 11:00N 45°20' W 038°57'1 0.7 14.8
2018-Jun-17 10:00N 45°20' W 038°56'1 1.2 14.8
2018-Jun-17 09:00N 45°22' W 038°56'1 0.7 14.8
2018-Jun-17 08:00N 45°22' W 038°56'2 1.0 14.6
2018-Jun-17 06:00N 45°24' W 038°55'1 1.0 14.6
2018-Jun-17 05:00N 45°25' W 038°53'1 0.7 14.6
2018-Jun-17 04:00N 45°25' W 038°53'2 1.0 14.6
2018-Jun-17 02:00N 45°27' W 038°52'1 1.3 14.6
2018-Jun-17 01:00N 45°28' W 038°51'1 0.7 14.6
2018-Jun-17 00:00N 45°29' W 038°50'1 0.7 14.6
2018-Jun-16 23:00N 45°29' W 038°50'1 1.2 14.6
2018-Jun-16 22:00N 45°31' W 038°50'0 0.0 14.6
2018-Jun-16 21:00N 45°31' W 038°50'1 0.6 14.6
2018-Jun-16 20:00N 45°31' W 038°50'0 0.4 14.6
2018-Jun-16 19:00N 45°31' W 038°49'1 0.7 14.6
2018-Jun-16 18:00N 45°32' W 038°49'0 0.0 14.5
2018-Jun-16 17:00N 45°32' W 038°49'1 0.8 14.6
2018-Jun-16 16:00N 45°32' W 038°47'1 0.7 14.5
2018-Jun-16 15:00N 45°32' W 038°47'1 0.7 14.5
2018-Jun-16 14:00N 45°33' W 038°46'0 0.4 14.5
2018-Jun-16 13:00N 45°33' W 038°46'1 0.7 14.4
2018-Jun-16 12:00N 45°34' W 038°45'1 0.7 14.4
2018-Jun-16 11:00N 45°34' W 038°44'1 0.6 14.6
2018-Jun-16 10:00N 45°35' W 038°44'1 0.7 14.7
2018-Jun-16 09:00N 45°35' W 038°45'1 0.6 14.8
2018-Jun-16 08:00N 45°36' W 038°45'1 0.7 14.8
2018-Jun-16 07:00N 45°37' W 038°46'0 0.4 14.9
2018-Jun-16 06:00N 45°37' W 038°46'0 0.0 15.0
2018-Jun-16 05:00N 45°37' W 038°46'0 0.4 15.0
2018-Jun-16 04:00N 45°37' W 038°47'1 0.6 15.0
2018-Jun-16 03:00N 45°36' W 038°47'0 0.0 15.0
2018-Jun-16 02:00N 45°36' W 038°47'0 0.4 15.0
2018-Jun-16 01:00N 45°36' W 038°47'1 0.6 15.0
2018-Jun-16 00:00N 45°35' W 038°47'0 0.4 15.0
2018-Jun-15 23:00N 45°35' W 038°47'0 0.0 15.0
2018-Jun-15 22:00N 45°35' W 038°47'1 0.7 15.0
2018-Jun-15 21:00N 45°35' W 038°46'0 0.0 15.0
2018-Jun-15 20:00N 45°35' W 038°46'0 0.0 15.0
2018-Jun-15 19:00N 45°35' W 038°46'0 0.0 15.0
2018-Jun-15 18:00N 45°35' W 038°46'1 0.6 15.1
2018-Jun-15 17:00N 45°34' W 038°46'0 0.0 15.1
2018-Jun-15 16:00N 45°34' W 038°46'0 0.4 15.1
2018-Jun-15 15:00N 45°34' W 038°47'0 0.4 15.1
2018-Jun-15 14:00N 45°34' W 038°47'1 0.8 15.0
2018-Jun-15 13:00N 45°34' W 038°49'0 0.4 14.9
2018-Jun-15 12:00N 45°34' W 038°49'1 1.0 14.8
2018-Jun-15 11:00N 45°35' W 038°50'1 1.0 14.8
2018-Jun-15 10:00N 45°35' W 038°52'1 0.8 14.8
2018-Jun-15 09:00N 45°35' W 038°53'1 1.0 14.8
2018-Jun-15 08:00N 45°36' W 038°54'1 1.3 14.8
2018-Jun-15 07:00N 45°36' W 038°56'1 1.0 14.8
2018-Jun-15 06:00N 45°37' W 038°57'3 1.5 14.8
2018-Jun-15 04:00N 45°38' W 039°01'1 1.0 14.9
2018-Jun-15 03:00N 45°39' W 039°02'2 1.7 14.9
2018-Jun-15 02:00N 45°40' W 039°04'1 1.5 14.9
2018-Jun-15 01:00N 45°41' W 039°05'1 1.5 14.9
2018-Jun-15 00:00N 45°43' W 039°06'1 1.5 14.9
2018-Jun-14 23:00N 45°44' W 039°07'1 1.5 14.9
2018-Jun-14 22:00N 45°45' W 039°08'1 1.5 15.0
2018-Jun-14 21:00N 45°46' W 039°10'1 1.0 14.9
2018-Jun-14 20:00N 45°47' W 039°11'1 1.0 15.0
2018-Jun-14 19:00N 45°47' W 039°12'1 1.0 15.0
2018-Jun-14 18:00N 45°48' W 039°13'1 0.7 15.0
2018-Jun-14 17:00N 45°49' W 039°14'1 1.0 14.9
2018-Jun-14 16:00N 45°49' W 039°15'1 0.7 15.0
2018-Jun-14 15:00N 45°50' W 039°16'1 1.0 15.0
2018-Jun-14 14:00N 45°50' W 039°17'1 0.7 14.9
2018-Jun-14 13:00N 45°51' W 039°17'1 1.0 14.9
2018-Jun-14 12:00N 45°52' W 039°19'1 1.0 14.9
2018-Jun-14 11:00N 45°52' W 039°20'1 1.0 14.9
2018-Jun-14 10:00N 45°53' W 039°21'1 1.0 14.9
2018-Jun-14 09:00N 45°53' W 039°22'0 0.4 14.9
2018-Jun-14 08:00N 45°53' W 039°23'1 0.8 14.9
2018-Jun-14 07:00N 45°53' W 039°24'1 0.7 14.9
2018-Jun-14 06:00N 45°54' W 039°25'0 0.4 14.9
2018-Jun-14 05:00N 45°54' W 039°25'0 0.0 14.9
2018-Jun-14 04:00N 45°54' W 039°25'1 0.7 14.9
2018-Jun-14 03:00N 45°55' W 039°26'1 0.7 14.9
2018-Jun-14 02:00N 45°55' W 039°26'1 0.6 14.9
2018-Jun-14 01:00N 45°56' W 039°26'1 0.6 14.9
2018-Jun-14 00:00N 45°56' W 039°26'   14.9
Track history (hours):
 
Tides and Currents Weather Stations Pressure Air Temp Water Temp Dewpoint Dewpoint Depression Visibility Wind Speed Wind Dir Waves Ship Positions

Drifting buoy 41540

Last reported at 2018-Jun-24 00:00 UTC. Time now 2018-Jun-24 01:10 UTC.
Position N 42°49' W 037°45'.

Water temperature 16.4 ° C

Date/timePositionNaut miles runAvg speedWind from/ knotsBaromVisibWave heightAir tempDewpointWater temp
2018-Jun-24 00:00N 42°49' W 037°45'1 1.3 16.4
2018-Jun-23 23:00N 42°50' W 037°44'1 0.7 16.5
2018-Jun-23 22:00N 42°51' W 037°44'1 0.6 16.5
2018-Jun-23 21:00N 42°52' W 037°44'1 1.3 16.6
2018-Jun-23 20:00N 42°53' W 037°43'1 1.2 16.7
2018-Jun-23 19:00N 42°54' W 037°43'6 1.1 16.7
2018-Jun-23 13:00N 42°59' W 037°48'0 0.4 16.6
2018-Jun-23 12:00N 42°59' W 037°49'0 0.4 16.6
2018-Jun-23 11:00N 42°59' W 037°49'0 0.4 16.6
2018-Jun-23 10:00N 42°59' W 037°50'0 0.4 16.5
2018-Jun-23 09:00N 42°59' W 037°50'0 0.4 16.4
2018-Jun-23 08:00N 42°59' W 037°51'1 0.7 16.5
2018-Jun-23 07:00N 43°00' W 037°52'0 0.4 16.5
2018-Jun-23 06:00N 43°00' W 037°52'1 0.7 16.5
2018-Jun-23 05:00N 43°01' W 037°53'0 0.4 16.5
2018-Jun-23 04:00N 43°01' W 037°53'0 0.4 16.5
2018-Jun-23 03:00N 43°01' W 037°54'1 0.7 16.6
2018-Jun-23 02:00N 43°01' W 037°55'0 0.4 16.7
2018-Jun-23 01:00N 43°01' W 037°55'1 0.7 16.7
2018-Jun-23 00:00N 43°02' W 037°56'1 0.9 16.8
2018-Jun-22 23:00N 43°02' W 037°57'1 0.7 16.8
2018-Jun-22 22:00N 43°02' W 037°58'0 0.4 16.6
2018-Jun-22 21:00N 43°02' W 037°58'1 0.7 16.6
2018-Jun-22 20:00N 43°03' W 037°59'1 0.9 16.6
2018-Jun-22 19:00N 43°03' W 038°00'1 0.7 16.6
2018-Jun-22 18:00N 43°04' W 038°01'0 0.4 16.6
2018-Jun-22 17:00N 43°04' W 038°01'1 0.9 16.6
2018-Jun-22 16:00N 43°04' W 038°02'1 0.9 16.5
2018-Jun-22 15:00N 43°04' W 038°04'0 0.4 16.5
2018-Jun-22 14:00N 43°04' W 038°04'0 0.4 16.4
2018-Jun-22 13:00N 43°04' W 038°05'0 0.0 16.4
2018-Jun-22 12:00N 43°04' W 038°05'1 0.7 16.4
2018-Jun-22 10:00N 43°05' W 038°06'1 0.7 16.4
2018-Jun-22 08:00N 43°05' W 038°08'6 0.9 16.3
2018-Jun-22 01:00N 43°08' W 038°15'0 0.4 16.4
2018-Jun-22 00:00N 43°08' W 038°16'1 0.7 16.4
2018-Jun-21 23:00N 43°09' W 038°16'0 0.4 16.4
2018-Jun-21 22:00N 43°09' W 038°17'1 1.1 16.4
2018-Jun-21 21:00N 43°10' W 038°18'1 0.7 16.4
2018-Jun-21 20:00N 43°10' W 038°19'1 0.7 16.5
2018-Jun-21 19:00N 43°11' W 038°19'1 1.5 16.4
2018-Jun-21 18:00N 43°12' W 038°20'1 0.7 16.4
2018-Jun-21 17:00N 43°13' W 038°21'1 1.1 16.2
2018-Jun-21 16:00N 43°13' W 038°22'1 1.5 16.1
2018-Jun-21 15:00N 43°14' W 038°23'1 1.1 16.0
2018-Jun-21 14:00N 43°15' W 038°25'1 1.1 15.9
2018-Jun-21 13:00N 43°16' W 038°26'1 1.5 15.9
2018-Jun-21 12:00N 43°17' W 038°27'1 1.1 15.9
2018-Jun-21 11:00N 43°17' W 038°28'1 1.5 15.8
2018-Jun-21 10:00N 43°19' W 038°29'1 1.1 15.8
2018-Jun-21 09:00N 43°19' W 038°31'1 1.1 15.8
2018-Jun-21 08:00N 43°20' W 038°32'1 1.1 15.8
2018-Jun-21 07:00N 43°20' W 038°33'1 0.7 15.8
2018-Jun-21 06:00N 43°21' W 038°34'1 1.1 15.8
2018-Jun-21 05:00N 43°22' W 038°35'1 0.7 15.8
2018-Jun-21 04:00N 43°22' W 038°35'1 1.3 15.8
2018-Jun-21 03:00N 43°23' W 038°36'1 1.1 15.8
2018-Jun-21 02:00N 43°24' W 038°37'1 1.3 15.8
2018-Jun-21 01:00N 43°25' W 038°38'1 0.7 15.8
2018-Jun-21 00:00N 43°26' W 038°38'1 1.3 200 / 4 gusting 41015.7 0.6 15.8
2018-Jun-20 23:00N 43°27' W 038°39'1 0.7 15.9
2018-Jun-20 22:00N 43°28' W 038°40'1 1.5 15.9
2018-Jun-20 21:00N 43°29' W 038°41'1 1.1 16.0
2018-Jun-20 20:00N 43°29' W 038°42'1 1.3 16.0
2018-Jun-20 19:00N 43°31' W 038°43'1 1.1 15.9
2018-Jun-20 18:00N 43°31' W 038°44'1 1.5 15.9
2018-Jun-20 17:00N 43°32' W 038°45'1 0.7 15.9
2018-Jun-20 16:00N 43°33' W 038°46'1 1.1 15.8
2018-Jun-20 15:00N 43°34' W 038°47'1 1.3 15.6
2018-Jun-20 14:00N 43°35' W 038°47'1 0.7 15.6
2018-Jun-20 13:00N 43°35' W 038°48'1 0.7 15.4
2018-Jun-20 12:00N 43°36' W 038°49'1 1.3 15.4
2018-Jun-20 11:00N 43°37' W 038°49'1 0.7 15.3
2018-Jun-20 10:00N 43°38' W 038°50'3 1.2 15.3
2018-Jun-20 07:00N 43°41' W 038°52'1 0.7 15.3
2018-Jun-20 06:00N 43°41' W 038°53'1 1.3 15.4
2018-Jun-20 05:00N 43°43' W 038°53'1 0.7 15.4
2018-Jun-20 04:00N 43°43' W 038°54'1 1.3 15.4
2018-Jun-20 03:00N 43°44' W 038°55'2 1.0 15.5
2018-Jun-20 01:00N 43°46' W 038°56'1 1.3 15.6
2018-Jun-20 00:00N 43°47' W 038°56'1 0.7 15.7
2018-Jun-19 23:00N 43°48' W 038°57'1 0.6 15.8
2018-Jun-19 22:00N 43°49' W 038°57'1 1.3 15.9
2018-Jun-19 21:00N 43°50' W 038°58'1 0.7 16.1
2018-Jun-19 20:00N 43°50' W 038°58'1 1.2 16.4
2018-Jun-19 19:00N 43°52' W 038°58'1 1.3 16.5
2018-Jun-19 18:00N 43°53' W 038°59'1 0.6 16.7
2018-Jun-19 17:00N 43°53' W 038°59'1 1.3 16.7
2018-Jun-19 16:00N 43°55' W 038°59'1 1.2 16.5
2018-Jun-19 15:00N 43°56' W 038°59'1 1.3 16.1
2018-Jun-19 14:00N 43°57' W 039°00'1 1.2 15.7
2018-Jun-19 13:00N 43°58' W 039°00'1 1.2 15.4
2018-Jun-19 12:00N 43°59' W 039°00'1 1.2 15.3
2018-Jun-19 11:00N 44°01' W 039°00'2 1.8 15.2
2018-Jun-19 10:00N 44°02' W 039°00'1 1.3 15.1
2018-Jun-19 09:00N 44°04' W 038°59'2 1.8 15.1
2018-Jun-19 08:00N 44°05' W 038°59'1 1.3 15.1
2018-Jun-19 07:00N 44°07' W 039°00'1 1.2 15.1
2018-Jun-19 06:00N 44°08' W 039°00'2 1.8 15.2
2018-Jun-19 05:00N 44°10' W 039°00'1 1.3 15.1
2018-Jun-19 04:00N 44°11' W 038°59'1 1.2 15.1
2018-Jun-19 03:00N 44°12' W 038°59'2 1.9 15.1
2018-Jun-19 02:00N 44°14' W 038°59'2 1.9 15.1
2018-Jun-19 01:00N 44°16' W 038°58'1 1.5 15.1
2018-Jun-19 00:00N 44°17' W 038°57'2 2.0 15.1
2018-Jun-18 23:00N 44°19' W 038°56'2 1.9 14.9
2018-Jun-18 22:00N 44°20' W 038°55'2 2.4 14.9
2018-Jun-18 21:00N 44°23' W 038°55'2 2.0 14.9
2018-Jun-18 20:00N 44°25' W 038°53'2 1.9 15.0
2018-Jun-18 19:00N 44°26' W 038°53'3 2.5 15.0
2018-Jun-18 18:00N 44°29' W 038°52'2 1.9 15.1
2018-Jun-18 17:00N 44°31' W 038°51'2 2.4 15.1
2018-Jun-18 16:00N 44°33' W 038°51'2 2.4 15.1
2018-Jun-18 15:00N 44°35' W 038°50'2 1.8 15.0
2018-Jun-18 14:00N 44°37' W 038°50'2 2.4 14.9
2018-Jun-18 13:00N 44°40' W 038°50'2 2.4 15.0
2018-Jun-18 12:00N 44°42' W 038°50'6 2.0 14.9
2018-Jun-18 09:00N 44°48' W 038°51'2 1.8 14.9
2018-Jun-18 08:00N 44°50' W 038°52'2 1.8 14.9
2018-Jun-18 07:00N 44°52' W 038°52'1 1.3 15.0
2018-Jun-18 06:00N 44°53' W 038°52'2 1.8 15.0
2018-Jun-18 05:00N 44°55' W 038°52'2 1.8 14.9
2018-Jun-18 04:00N 44°56' W 038°52'2 1.8 220 / 12 gusting 14 0.222.012.215.0
2018-Jun-18 03:00N 44°58' W 038°52'2 1.8 15.0
2018-Jun-18 02:00N 45°00' W 038°52'2 1.8 15.1
2018-Jun-18 01:00N 45°02' W 038°53'2 1.8 15.1
2018-Jun-18 00:00N 45°04' W 038°53'2 1.8 15.1
2018-Jun-17 23:00N 45°05' W 038°53'1 1.2 15.1
2018-Jun-17 22:00N 45°07' W 038°53'2 1.8 15.1
2018-Jun-17 21:00N 45°08' W 038°54'1 1.2 15.2
2018-Jun-17 20:00N 45°10' W 038°54'2 1.8 15.2
2018-Jun-17 19:00N 45°11' W 038°55'1 1.2 15.1
2018-Jun-17 18:00N 45°13' W 038°55'1 1.2 15.1
2018-Jun-17 17:00N 45°14' W 038°55'2 1.8 15.1
2018-Jun-17 16:00N 45°16' W 038°55'1 1.2 15.1
2018-Jun-17 15:00N 45°17' W 038°55'1 0.7 15.0
2018-Jun-17 14:00N 45°17' W 038°56'1 1.3 15.0
2018-Jun-17 13:00N 45°19' W 038°56'1 0.6 15.0
2018-Jun-17 12:00N 45°19' W 038°56'1 0.7 14.9
2018-Jun-17 11:00N 45°20' W 038°57'1 0.7 14.8
2018-Jun-17 10:00N 45°20' W 038°56'1 1.2 14.8
2018-Jun-17 09:00N 45°22' W 038°56'1 0.7 14.8
2018-Jun-17 08:00N 45°22' W 038°56'2 1.0 14.6
2018-Jun-17 06:00N 45°24' W 038°55'1 1.0 14.6
2018-Jun-17 05:00N 45°25' W 038°53'1 0.7 14.6
2018-Jun-17 04:00N 45°25' W 038°53'2 1.0 14.6
2018-Jun-17 02:00N 45°27' W 038°52'1 1.3 14.6
2018-Jun-17 01:00N 45°28' W 038°51'1 0.7 14.6
2018-Jun-17 00:00N 45°29' W 038°50'1 0.7 14.6
2018-Jun-16 23:00N 45°29' W 038°50'1 1.2 14.6
2018-Jun-16 22:00N 45°31' W 038°50'0 0.0 14.6
2018-Jun-16 21:00N 45°31' W 038°50'1 0.6 14.6
2018-Jun-16 20:00N 45°31' W 038°50'0 0.4 14.6
2018-Jun-16 19:00N 45°31' W 038°49'1 0.7 14.6
2018-Jun-16 18:00N 45°32' W 038°49'0 0.0 14.5
2018-Jun-16 17:00N 45°32' W 038°49'1 0.8 14.6
2018-Jun-16 16:00N 45°32' W 038°47'1 0.7 14.5
2018-Jun-16 15:00N 45°32' W 038°47'1 0.7 14.5
2018-Jun-16 14:00N 45°33' W 038°46'0 0.4 14.5
2018-Jun-16 13:00N 45°33' W 038°46'1 0.7 14.4
2018-Jun-16 12:00N 45°34' W 038°45'1 0.7 14.4
2018-Jun-16 11:00N 45°34' W 038°44'1 0.6 14.6
2018-Jun-16 10:00N 45°35' W 038°44'1 0.7 14.7
2018-Jun-16 09:00N 45°35' W 038°45'1 0.6 14.8
2018-Jun-16 08:00N 45°36' W 038°45'1 0.7 14.8
2018-Jun-16 07:00N 45°37' W 038°46'0 0.4 14.9
2018-Jun-16 06:00N 45°37' W 038°46'0 0.0 15.0
2018-Jun-16 05:00N 45°37' W 038°46'0 0.4 15.0
2018-Jun-16 04:00N 45°37' W 038°47'1 0.6 15.0
2018-Jun-16 03:00N 45°36' W 038°47'0 0.0 15.0
2018-Jun-16 02:00N 45°36' W 038°47'0 0.4 15.0
2018-Jun-16 01:00N 45°36' W 038°47'1 0.6 15.0
2018-Jun-16 00:00N 45°35' W 038°47'0 0.4 15.0
2018-Jun-15 23:00N 45°35' W 038°47'0 0.0 15.0
2018-Jun-15 22:00N 45°35' W 038°47'1 0.7 15.0
2018-Jun-15 21:00N 45°35' W 038°46'0 0.0 15.0
2018-Jun-15 20:00N 45°35' W 038°46'0 0.0 15.0
2018-Jun-15 19:00N 45°35' W 038°46'0 0.0 15.0
2018-Jun-15 18:00N 45°35' W 038°46'1 0.6 15.1
2018-Jun-15 17:00N 45°34' W 038°46'0 0.0 15.1
2018-Jun-15 16:00N 45°34' W 038°46'0 0.4 15.1
2018-Jun-15 15:00N 45°34' W 038°47'0 0.4 15.1
2018-Jun-15 14:00N 45°34' W 038°47'1 0.8 15.0
2018-Jun-15 13:00N 45°34' W 038°49'0 0.4 14.9
2018-Jun-15 12:00N 45°34' W 038°49'1 1.0 14.8
2018-Jun-15 11:00N 45°35' W 038°50'1 1.0 14.8
2018-Jun-15 10:00N 45°35' W 038°52'1 0.8 14.8
2018-Jun-15 09:00N 45°35' W 038°53'1 1.0 14.8
2018-Jun-15 08:00N 45°36' W 038°54'1 1.3 14.8
2018-Jun-15 07:00N 45°36' W 038°56'1 1.0 14.8
2018-Jun-15 06:00N 45°37' W 038°57'3 1.5 14.8
2018-Jun-15 04:00N 45°38' W 039°01'1 1.0 14.9
2018-Jun-15 03:00N 45°39' W 039°02'2 1.7 14.9
2018-Jun-15 02:00N 45°40' W 039°04'1 1.5 14.9
2018-Jun-15 01:00N 45°41' W 039°05'1 1.5 14.9
2018-Jun-15 00:00N 45°43' W 039°06'1 1.5 14.9
2018-Jun-14 23:00N 45°44' W 039°07'1 1.5 14.9
2018-Jun-14 22:00N 45°45' W 039°08'1 1.5 15.0
2018-Jun-14 21:00N 45°46' W 039°10'1 1.0 14.9
2018-Jun-14 20:00N 45°47' W 039°11'1 1.0 15.0
2018-Jun-14 19:00N 45°47' W 039°12'1 1.0 15.0
2018-Jun-14 18:00N 45°48' W 039°13'1 0.7 15.0
2018-Jun-14 17:00N 45°49' W 039°14'1 1.0 14.9
2018-Jun-14 16:00N 45°49' W 039°15'1 0.7 15.0
2018-Jun-14 15:00N 45°50' W 039°16'1 1.0 15.0
2018-Jun-14 14:00N 45°50' W 039°17'1 0.7 14.9
2018-Jun-14 13:00N 45°51' W 039°17'1 1.0 14.9
2018-Jun-14 12:00N 45°52' W 039°19'1 1.0 14.9
2018-Jun-14 11:00N 45°52' W 039°20'1 1.0 14.9
2018-Jun-14 10:00N 45°53' W 039°21'1 1.0 14.9
2018-Jun-14 09:00N 45°53' W 039°22'0 0.4 14.9
2018-Jun-14 08:00N 45°53' W 039°23'1 0.8 14.9
2018-Jun-14 07:00N 45°53' W 039°24'1 0.7 14.9
2018-Jun-14 06:00N 45°54' W 039°25'0 0.4 14.9
2018-Jun-14 05:00N 45°54' W 039°25'0 0.0 14.9
2018-Jun-14 04:00N 45°54' W 039°25'1 0.7 14.9
2018-Jun-14 03:00N 45°55' W 039°26'1 0.7 14.9
2018-Jun-14 02:00N 45°55' W 039°26'1 0.6 14.9
2018-Jun-14 01:00N 45°56' W 039°26'1 0.6 14.9
2018-Jun-14 00:00N 45°56' W 039°26'   14.9

Dump ship's entire track history